createdAt,value
2018-05-31T00:00:19.000Z,44.784
2018-05-31T00:10:19.000Z,43.839
2018-05-31T00:20:19.000Z,44.513
2018-05-31T00:30:19.000Z,44.221
2018-05-31T00:40:19.000Z,43.968
2018-05-31T00:50:19.000Z,44.398
2018-05-31T01:00:19.000Z,44.722
2018-05-31T01:10:19.000Z,44.57
2018-05-31T01:20:19.000Z,44.689
2018-05-31T01:30:19.000Z,44.545
2018-05-31T01:40:19.000Z,44.828
2018-05-31T01:50:19.000Z,44.802
2018-05-31T02:00:19.000Z,46.03
2018-05-31T02:10:21.000Z,45.349
2018-05-31T02:20:19.000Z,45.573
2018-05-31T02:30:19.000Z,46.434
2018-05-31T02:40:19.000Z,46.006
2018-05-31T02:50:20.000Z,45.851
2018-05-31T03:00:20.000Z,45.916
2018-05-31T03:10:20.000Z,45.746
2018-05-31T03:20:20.000Z,45.783
2018-05-31T03:30:20.000Z,45.82
2018-05-31T03:40:20.000Z,45.875
2018-05-31T03:50:20.000Z,45.727
2018-05-31T04:00:20.000Z,46.829
2018-05-31T04:10:20.000Z,47.024
2018-05-31T04:20:20.000Z,46.54
2018-05-31T04:30:20.000Z,46.491
2018-05-31T04:40:20.000Z,46.282
2018-05-31T04:50:20.000Z,46.315
2018-05-31T05:00:20.000Z,46.388
2018-05-31T05:10:20.000Z,46.231
2018-05-31T05:20:20.000Z,45.704
2018-05-31T05:30:20.000Z,45.559
2018-05-31T05:40:20.000Z,45.44
2018-05-31T05:50:20.000Z,45.04
2018-05-31T06:00:20.000Z,44.584
2018-05-31T06:10:20.000Z,45.432
2018-05-31T06:20:20.000Z,45.693
2018-05-31T06:30:20.000Z,44.938
2018-05-31T06:40:20.000Z,45.712
2018-05-31T06:50:20.000Z,45.413
2018-05-31T07:00:20.000Z,45.276
2018-05-31T07:10:20.000Z,45.763
2018-05-31T07:20:23.000Z,44.75
2018-05-31T07:30:20.000Z,43.892
2018-05-31T07:40:20.000Z,44.089
2018-05-31T07:50:20.000Z,43.657
2018-05-31T08:00:20.000Z,43.615
2018-05-31T08:10:20.000Z,43.421
2018-05-31T08:20:20.000Z,42.936
2018-05-31T08:30:20.000Z,43.045
2018-05-31T08:40:20.000Z,42.68
2018-05-31T08:50:20.000Z,42.83
2018-05-31T09:00:20.000Z,42.085
2018-05-31T09:10:20.000Z,41.407
2018-05-31T09:20:20.000Z,40.413
2018-05-31T09:30:20.000Z,40.828
2018-05-31T09:40:20.000Z,39.71
2018-05-31T09:50:20.000Z,39.537
2018-05-31T10:00:20.000Z,38.823
2018-05-31T10:10:20.000Z,37.904
2018-05-31T10:20:20.000Z,37.238
2018-05-31T10:30:20.000Z,36.297
2018-05-31T10:40:20.000Z,35.725
2018-05-31T10:50:21.000Z,36.799
2018-05-31T11:00:21.000Z,35.171
2018-05-31T11:10:21.000Z,36.262
2018-05-31T11:20:21.000Z,34.952
2018-05-31T11:30:21.000Z,35.498
2018-05-31T11:40:21.000Z,36.064
2018-05-31T11:50:21.000Z,35.539
2018-05-31T12:00:23.000Z,35.821
2018-05-31T12:10:21.000Z,36.429
2018-05-31T12:20:21.000Z,36.196
2018-05-31T12:30:21.000Z,35.617
2018-05-31T12:40:21.000Z,34.803
2018-05-31T12:50:21.000Z,36.461
2018-05-31T13:00:21.000Z,33.896
2018-05-31T13:10:21.000Z,33.625
2018-05-31T13:20:21.000Z,33.519
2018-05-31T13:30:21.000Z,33.804
2018-05-31T13:40:21.000Z,34
2018-05-31T13:50:21.000Z,32.91
2018-05-31T14:00:21.000Z,31.388
2018-05-31T14:10:21.000Z,31.218
2018-05-31T14:20:21.000Z,32.18
2018-05-31T14:30:21.000Z,33.113
2018-05-31T14:40:21.000Z,33.846
2018-05-31T14:50:21.000Z,34.469
2018-05-31T15:00:21.000Z,35.82
2018-05-31T15:10:21.000Z,37.266
2018-05-31T15:20:21.000Z,39.516
2018-05-31T15:30:21.000Z,40.085
2018-05-31T15:40:21.000Z,41.813
2018-05-31T15:50:21.000Z,42.764
2018-05-31T16:00:21.000Z,42.906
2018-05-31T16:10:22.000Z,42.475
2018-05-31T16:20:21.000Z,42.409
2018-05-31T16:30:21.000Z,42.898
2018-05-31T16:40:21.000Z,42.207
2018-05-31T16:50:21.000Z,41.82
2018-05-31T17:00:21.000Z,41.182
2018-05-31T17:10:21.000Z,40.676
2018-05-31T17:20:21.000Z,40.706
2018-05-31T17:30:21.000Z,41.582
2018-05-31T17:40:21.000Z,40.942
2018-05-31T18:00:21.000Z,42.128
2018-05-31T18:10:21.000Z,41.972
2018-05-31T18:20:21.000Z,42.321
2018-05-31T18:30:21.000Z,43.394
2018-05-31T18:40:22.000Z,43.149
2018-05-31T18:50:22.000Z,43.013
2018-05-31T19:00:22.000Z,43.196
2018-05-31T19:10:22.000Z,43.358
2018-05-31T19:20:22.000Z,43.592
2018-05-31T19:30:22.000Z,43.45
2018-05-31T19:40:22.000Z,43.403
2018-05-31T19:50:22.000Z,43.365
2018-05-31T20:00:22.000Z,43.654
2018-05-31T20:10:22.000Z,43.685
2018-05-31T20:20:22.000Z,43.631
2018-05-31T20:30:22.000Z,43.573
2018-05-31T20:40:22.000Z,43.482
2018-05-31T20:50:22.000Z,44.116
2018-05-31T21:00:22.000Z,44.343
2018-05-31T21:10:22.000Z,44.327
2018-05-31T21:20:22.000Z,44.43
2018-05-31T21:30:22.000Z,44.483
2018-05-31T21:40:22.000Z,44.461
2018-05-31T21:50:22.000Z,44.631
2018-05-31T22:00:22.000Z,44.773
2018-05-31T22:10:22.000Z,44.551
2018-05-31T22:20:22.000Z,44.755
2018-05-31T22:30:22.000Z,44.839
2018-05-31T22:40:22.000Z,44.757
2018-05-31T22:50:22.000Z,44.889
2018-05-31T23:00:22.000Z,44.874
2018-05-31T23:10:22.000Z,44.915
2018-05-31T23:20:22.000Z,44.932
2018-05-31T23:30:22.000Z,44.875
2018-05-31T23:40:22.000Z,44.814
